createdAt,value
2018-04-29T00:00:29.249Z,65.00
2018-04-29T00:02:57.547Z,65.40
2018-04-29T00:05:25.076Z,65.40
2018-04-29T00:07:52.612Z,65.60
2018-04-29T00:10:20.136Z,66.00
2018-04-29T00:12:47.701Z,66.30
2018-04-29T00:15:15.213Z,67.50
2018-04-29T00:17:42.722Z,68.20
2018-04-29T00:20:10.261Z,68.20
2018-04-29T00:22:38.566Z,68.80
2018-04-29T00:25:06.072Z,68.80
2018-04-29T00:27:33.576Z,69.10
2018-04-29T00:30:01.098Z,68.80
2018-04-29T00:32:29.373Z,69.90
2018-04-29T00:34:57.676Z,70.90
2018-04-29T00:37:25.195Z,69.90
2018-04-29T00:39:52.698Z,69.20
2018-04-29T00:42:20.220Z,70.00
2018-04-29T00:44:47.784Z,70.30
2018-04-29T00:47:15.304Z,70.70
2018-04-29T00:49:42.812Z,70.50
2018-04-29T00:52:11.101Z,71.60
2018-04-29T00:54:39.381Z,72.30
2018-04-29T00:57:07.741Z,72.90
2018-04-29T00:59:35.266Z,72.90
2018-04-29T01:02:02.815Z,73.60
2018-04-29T01:04:30.330Z,74.00
2018-04-29T01:06:57.847Z,74.60
2018-04-29T01:09:25.375Z,75.20
2018-04-29T01:11:52.899Z,76.00
2018-04-29T01:14:20.409Z,76.60
2018-04-29T01:16:47.939Z,77.40
2018-04-29T01:19:15.440Z,78.00
2018-04-29T01:21:43.009Z,78.80
2018-04-29T01:24:10.514Z,79.20
2018-04-29T01:26:38.789Z,80.90
2018-04-29T01:29:06.317Z,80.90
2018-04-29T01:31:33.840Z,81.70
2018-04-29T01:34:01.362Z,82.40
2018-04-29T01:36:29.672Z,84.60
2018-04-29T01:38:57.189Z,84.50
2018-04-29T01:41:24.720Z,85.70
2018-04-29T01:43:52.249Z,86.60
2018-04-29T01:46:19.773Z,87.30
2018-04-29T01:48:47.278Z,88.40
2018-04-29T01:51:14.845Z,89.40
2018-04-29T01:53:42.362Z,90.00
2018-04-29T01:56:10.639Z,90.50
2018-04-29T01:58:38.184Z,90.50
2018-04-29T02:01:06.496Z,90.90
2018-04-29T02:03:34.001Z,90.90
2018-04-29T02:06:01.511Z,90.80
2018-04-29T02:08:29.022Z,91.10
2018-04-29T02:10:56.530Z,91.40
2018-04-29T02:13:24.067Z,91.70
2018-04-29T02:15:52.341Z,92.20
2018-04-29T02:18:19.864Z,92.20
2018-04-29T02:20:47.389Z,92.50
2018-04-29T02:23:14.923Z,92.70
2018-04-29T02:25:43.189Z,92.80
2018-04-29T02:28:10.698Z,92.80
2018-04-29T02:30:38.220Z,93.10
2018-04-29T02:33:06.510Z,92.30
2018-04-29T02:35:34.009Z,92.30
2018-04-29T02:38:01.528Z,92.90
2018-04-29T02:40:29.075Z,93.10
2018-04-29T02:42:57.353Z,93.90
2018-04-29T02:45:25.619Z,94.00
2018-04-29T02:47:54.036Z,94.40
2018-04-29T02:50:21.568Z,94.40
2018-04-29T02:52:49.853Z,95.40
2018-04-29T02:55:18.214Z,95.40
2018-04-29T02:57:46.510Z,95.60
2018-04-29T03:00:14.042Z,95.60
2018-04-29T03:02:41.562Z,95.70
2018-04-29T03:05:09.098Z,96.00
2018-04-29T03:07:36.652Z,96.00
2018-04-29T03:10:04.164Z,96.30
2018-04-29T03:12:31.685Z,96.30
2018-04-29T03:14:59.212Z,96.40
2018-04-29T03:17:27.486Z,96.80
2018-04-29T03:19:55.781Z,97.10
2018-04-29T03:22:24.059Z,97.20
2018-04-29T03:24:52.327Z,97.40
2018-04-29T03:27:20.607Z,97.90
2018-04-29T03:29:48.152Z,97.90
2018-04-29T03:32:15.664Z,98.10
2018-04-29T03:34:43.203Z,98.50
2018-04-29T03:37:10.722Z,98.80
2018-04-29T03:39:38.236Z,98.90
2018-04-29T03:42:05.763Z,99.00
2018-04-29T03:44:34.046Z,99.60
2018-04-29T03:47:01.642Z,99.60
2018-04-29T03:49:29.147Z,99.90
2018-04-29T03:51:57.414Z,99.90
2018-04-29T03:54:25.011Z,99.90
2018-04-29T03:56:52.540Z,99.90
2018-04-29T03:59:31.948Z,99.90
2018-04-29T04:02:11.223Z,99.90
2018-04-29T04:04:39.527Z,99.90
2018-04-29T04:07:07.135Z,99.90
2018-04-29T04:09:34.663Z,99.90
2018-04-29T04:12:02.160Z,99.90
2018-04-29T04:14:29.671Z,99.90
2018-04-29T04:16:57.187Z,99.90
2018-04-29T04:19:24.722Z,99.90
2018-04-29T04:21:52.278Z,99.90
2018-04-29T04:24:20.564Z,99.90
2018-04-29T04:26:48.098Z,99.90
2018-04-29T04:29:15.627Z,99.90
2018-04-29T04:31:43.155Z,99.90
2018-04-29T04:34:11.494Z,99.90
2018-04-29T04:36:39.732Z,99.90
2018-04-29T04:39:08.023Z,99.90
2018-04-29T04:41:35.546Z,99.90
2018-04-29T04:44:03.058Z,99.90
2018-04-29T04:46:30.585Z,99.90
2018-04-29T04:48:58.877Z,99.90
2018-04-29T04:51:26.405Z,99.90
2018-04-29T04:53:53.915Z,99.90
2018-04-29T04:56:21.414Z,99.90
2018-04-29T04:58:48.921Z,99.90
2018-04-29T05:01:16.432Z,99.90
2018-04-29T05:03:43.942Z,99.90
2018-04-29T05:06:11.478Z,99.90
2018-04-29T05:08:39.764Z,99.90
2018-04-29T05:11:08.087Z,99.90
2018-04-29T05:13:35.631Z,99.90
2018-04-29T05:16:03.155Z,99.90
2018-04-29T05:18:31.438Z,99.90
2018-04-29T05:20:59.734Z,99.90
2018-04-29T05:23:27.258Z,99.90
2018-04-29T05:25:54.797Z,99.90
2018-04-29T05:28:22.351Z,99.90
2018-04-29T05:30:49.863Z,99.90
2018-04-29T05:33:17.372Z,99.90
2018-04-29T05:35:44.907Z,99.90
2018-04-29T05:38:12.418Z,99.90
2018-04-29T05:40:39.944Z,99.90
2018-04-29T05:43:07.475Z,99.90
2018-04-29T05:45:35.012Z,99.90
2018-04-29T05:48:02.629Z,99.90
2018-04-29T05:50:30.141Z,99.90
2018-04-29T05:52:57.682Z,99.90
2018-04-29T05:55:25.969Z,99.90
2018-04-29T05:57:54.252Z,99.90
2018-04-29T06:00:21.772Z,99.90
2018-04-29T06:02:50.122Z,99.90
2018-04-29T06:05:17.653Z,99.90
2018-04-29T06:07:45.169Z,99.90
2018-04-29T06:10:12.743Z,99.90
2018-04-29T06:12:40.291Z,99.90
2018-04-29T06:15:07.898Z,99.90
2018-04-29T06:17:35.496Z,99.90
2018-04-29T06:20:03.053Z,99.90
2018-04-29T06:22:30.550Z,99.90
2018-04-29T06:24:58.250Z,99.90
2018-04-29T06:27:25.769Z,99.90
2018-04-29T06:29:54.114Z,99.90
2018-04-29T06:32:21.610Z,99.90
2018-04-29T06:34:49.139Z,99.70
2018-04-29T06:37:16.667Z,99.40
2018-04-29T06:39:44.178Z,99.30
2018-04-29T06:42:11.688Z,99.30
2018-04-29T06:44:39.216Z,98.90
2018-04-29T06:47:07.498Z,97.50
2018-04-29T06:49:35.771Z,96.60
2018-04-29T06:52:04.041Z,95.80
2018-04-29T06:54:32.336Z,94.70
2018-04-29T06:56:59.863Z,94.70
2018-04-29T06:59:27.368Z,94.50
2018-04-29T07:01:54.885Z,92.80
2018-04-29T07:04:22.428Z,92.40
2018-04-29T07:06:50.726Z,91.40
2018-04-29T07:09:18.256Z,87.20
2018-04-29T07:11:45.766Z,86.00
2018-04-29T07:14:14.062Z,82.90
2018-04-29T07:16:41.699Z,82.90
2018-04-29T07:19:09.984Z,82.40
2018-04-29T07:21:37.485Z,82.40
2018-04-29T07:24:05.038Z,82.60
2018-04-29T07:26:32.533Z,82.60
2018-04-29T07:29:00.076Z,81.30
2018-04-29T07:31:27.585Z,83.40
2018-04-29T07:33:55.135Z,83.00
2018-04-29T07:36:23.415Z,79.20
2018-04-29T07:38:50.932Z,79.20
2018-04-29T07:41:18.434Z,76.50
2018-04-29T07:43:45.944Z,75.70
2018-04-29T07:46:13.457Z,73.60
2018-04-29T07:48:40.973Z,73.30
2018-04-29T07:51:08.515Z,73.60
2018-04-29T07:53:36.018Z,73.20
2018-04-29T07:56:04.287Z,74.10
2018-04-29T07:58:31.807Z,74.10
2018-04-29T08:00:59.361Z,75.60
2018-04-29T08:03:26.878Z,75.80
2018-04-29T08:05:55.229Z,74.90
2018-04-29T08:08:22.744Z,74.80
2018-04-29T08:10:50.261Z,74.90
2018-04-29T08:13:17.796Z,71.20
2018-04-29T08:15:46.292Z,66.90
2018-04-29T08:18:13.814Z,63.80
2018-04-29T08:20:41.374Z,64.80
2018-04-29T08:23:08.919Z,63.30
2018-04-29T08:25:36.440Z,62.00
2018-04-29T08:28:03.982Z,62.20
2018-04-29T08:30:31.490Z,62.10
2018-04-29T08:32:59.032Z,61.10
2018-04-29T08:35:27.366Z,62.20
2018-04-29T08:37:54.897Z,62.10
2018-04-29T08:40:22.451Z,60.80
2018-04-29T08:42:49.984Z,60.80
2018-04-29T08:45:17.510Z,61.90
2018-04-29T08:47:45.083Z,61.70
2018-04-29T08:50:12.665Z,62.10
2018-04-29T08:52:40.958Z,62.80
2018-04-29T08:55:09.242Z,63.30
2018-04-29T08:57:36.744Z,63.30
2018-04-29T09:00:04.263Z,63.10
2018-04-29T09:02:32.069Z,63.00
2018-04-29T09:04:59.578Z,63.30
2018-04-29T09:07:27.178Z,65.20
2018-04-29T09:09:54.925Z,66.30
2018-04-29T09:12:22.443Z,67.90
2018-04-29T09:14:49.940Z,68.60
2018-04-29T09:17:17.642Z,69.30
2018-04-29T09:19:45.200Z,71.00
2018-04-29T09:22:12.749Z,71.00
2018-04-29T09:24:40.259Z,72.20
2018-04-29T09:27:07.769Z,72.70
2018-04-29T09:29:35.275Z,71.70
2018-04-29T09:32:03.547Z,72.40
2018-04-29T09:34:31.816Z,71.70
2018-04-29T09:36:59.417Z,71.70
2018-04-29T09:39:26.935Z,71.00
2018-04-29T09:41:55.197Z,68.90
2018-04-29T09:44:22.726Z,69.30
2018-04-29T09:46:50.300Z,65.40
2018-04-29T09:49:17.825Z,60.70
2018-04-29T09:51:45.342Z,60.30
2018-04-29T09:54:12.871Z,59.70
2018-04-29T09:56:40.470Z,58.70
2018-04-29T09:59:07.970Z,58.20
2018-04-29T10:08:19.332Z,57.10
2018-04-29T10:10:46.892Z,54.60
2018-04-29T10:13:14.418Z,55.30
2018-04-29T10:15:41.927Z,54.70
2018-04-29T10:18:09.470Z,54.60
2018-04-29T10:20:37.031Z,54.00
2018-04-29T10:23:04.610Z,53.70
2018-04-29T10:25:32.175Z,53.50
2018-04-29T10:27:59.785Z,53.10
2018-04-29T10:30:27.321Z,53.40
2018-04-29T10:32:55.729Z,50.10
2018-04-29T10:35:23.195Z,50.10
2018-04-29T10:37:50.728Z,46.50
2018-04-29T10:40:18.302Z,43.00
2018-04-29T10:42:45.900Z,40.30
2018-04-29T10:45:13.470Z,38.20
2018-04-29T10:47:40.976Z,36.50
2018-04-29T10:50:08.490Z,34.70
2018-04-29T10:52:36.030Z,32.90
2018-04-29T10:55:03.549Z,30.90
2018-04-29T10:57:31.051Z,30.00
2018-04-29T10:59:58.598Z,28.10
2018-04-29T11:02:26.117Z,28.80
2018-04-29T11:04:53.645Z,26.80
2018-04-29T11:07:21.159Z,27.10
2018-04-29T11:09:48.684Z,25.60
2018-04-29T11:12:17.036Z,24.70
2018-04-29T11:14:44.733Z,24.70
2018-04-29T11:17:12.174Z,24.20
2018-04-29T11:19:39.683Z,24.10
2018-04-29T11:22:07.252Z,24.20
2018-04-29T11:24:34.761Z,24.90
2018-04-29T11:27:02.290Z,24.50
2018-04-29T11:29:29.799Z,23.50
2018-04-29T11:31:57.337Z,24.10
2018-04-29T11:34:25.672Z,23.30
2018-04-29T11:36:53.163Z,23.20
2018-04-29T11:39:20.696Z,23.40
2018-04-29T11:41:48.203Z,23.10
2018-04-29T11:44:15.722Z,22.70
2018-04-29T11:46:43.232Z,22.10
2018-04-29T11:49:10.798Z,22.00
2018-04-29T11:51:38.297Z,21.20
2018-04-29T11:54:05.812Z,21.20
2018-04-29T11:56:33.314Z,21.10
2018-04-29T11:59:00.880Z,20.90
2018-04-29T12:01:28.418Z,21.10
2018-04-29T12:03:55.952Z,22.00
2018-04-29T12:06:23.462Z,22.30
2018-04-29T12:08:51.034Z,23.50
2018-04-29T12:11:18.541Z,24.30
2018-04-29T12:13:46.085Z,24.80
2018-04-29T12:16:13.602Z,24.90
2018-04-29T12:18:41.115Z,25.40
2018-04-29T12:21:08.693Z,25.50
2018-04-29T12:23:36.306Z,26.10
2018-04-29T12:26:04.585Z,27.30
2018-04-29T12:28:32.879Z,27.70
2018-04-29T12:31:01.160Z,28.50
2018-04-29T12:33:28.673Z,28.50
2018-04-29T12:35:56.301Z,28.60
2018-04-29T12:38:23.826Z,29.40
2018-04-29T12:40:51.344Z,28.70
2018-04-29T12:43:18.882Z,29.30
2018-04-29T12:45:46.419Z,29.20
2018-04-29T12:48:13.936Z,27.70
2018-04-29T12:50:41.465Z,27.60
2018-04-29T12:53:08.973Z,27.20
2018-04-29T12:55:37.202Z,26.30
2018-04-29T12:58:04.719Z,25.40
2018-04-29T13:00:32.273Z,25.60
2018-04-29T13:02:59.797Z,26.10
2018-04-29T13:05:27.334Z,27.00
2018-04-29T13:07:55.029Z,27.90
2018-04-29T13:10:23.384Z,29.00
2018-04-29T13:12:50.883Z,29.00
2018-04-29T13:15:18.385Z,29.60
2018-04-29T13:17:45.909Z,30.10
2018-04-29T13:20:14.230Z,30.90
2018-04-29T13:22:41.773Z,30.80
2018-04-29T13:25:09.295Z,31.40
2018-04-29T13:27:37.648Z,32.50
2018-04-29T13:30:05.150Z,32.50
2018-04-29T13:32:33.429Z,33.00
2018-04-29T13:35:01.776Z,33.40
2018-04-29T13:37:30.150Z,33.60
2018-04-29T13:39:57.674Z,33.60
2018-04-29T13:42:25.271Z,33.30
2018-04-29T13:44:53.499Z,33.50
2018-04-29T13:47:21.033Z,33.40
2018-04-29T13:49:48.622Z,32.00
2018-04-29T13:52:16.239Z,32.30
2018-04-29T13:54:43.697Z,32.20
2018-04-29T13:57:11.208Z,31.80
2018-04-29T13:59:38.747Z,32.80
2018-04-29T14:02:06.267Z,32.00
2018-04-29T14:04:33.808Z,33.30
2018-04-29T14:07:01.350Z,34.10
2018-04-29T14:09:28.858Z,34.90
2018-04-29T14:11:56.495Z,35.60
2018-04-29T14:14:24.036Z,36.70
2018-04-29T14:16:51.551Z,36.80
2018-04-29T14:19:19.126Z,35.80
2018-04-29T14:21:47.393Z,35.00
2018-04-29T14:24:15.706Z,34.50
2018-04-29T14:26:43.214Z,34.40
2018-04-29T14:29:10.722Z,34.80
2018-04-29T14:31:38.286Z,36.30
2018-04-29T14:34:05.895Z,36.80
2018-04-29T14:36:33.663Z,37.40
2018-04-29T14:39:01.337Z,37.90
2018-04-29T14:41:28.992Z,38.20
2018-04-29T14:43:57.307Z,38.60
2018-04-29T14:46:24.823Z,39.40
2018-04-29T14:48:52.341Z,39.10
2018-04-29T14:51:19.883Z,39.00
2018-04-29T14:53:48.638Z,38.90
2018-04-29T14:56:16.213Z,38.00
2018-04-29T14:58:43.787Z,38.50
2018-04-29T15:01:11.340Z,39.30
2018-04-29T15:03:38.932Z,39.30
2018-04-29T15:06:06.463Z,39.40
2018-04-29T15:08:34.011Z,39.70
2018-04-29T15:11:01.530Z,39.80
2018-04-29T15:13:29.035Z,40.00
2018-04-29T15:15:58.241Z,39.40
2018-04-29T15:18:38.348Z,40.00
2018-04-29T15:21:05.885Z,40.00
2018-04-29T15:23:33.407Z,39.60
2018-04-29T15:26:00.915Z,39.60
2018-04-29T15:28:28.453Z,40.10
2018-04-29T15:30:55.976Z,40.10
2018-04-29T15:33:25.266Z,40.30
2018-04-29T15:35:53.699Z,40.20
2018-04-29T15:38:21.196Z,40.20
2018-04-29T15:40:48.706Z,40.20
2018-04-29T15:43:16.334Z,40.00
2018-04-29T15:45:44.601Z,40.00
2018-04-29T15:48:12.157Z,40.00
2018-04-29T15:50:39.699Z,40.00
2018-04-29T15:53:07.206Z,39.60
2018-04-29T15:55:34.761Z,39.70
2018-04-29T15:58:03.139Z,39.90
2018-04-29T16:00:30.593Z,39.90
2018-04-29T16:02:58.133Z,39.90
2018-04-29T16:05:25.652Z,40.00
2018-04-29T16:07:53.204Z,40.10
2018-04-29T16:10:20.721Z,40.10
2018-04-29T16:12:48.241Z,40.30
2018-04-29T16:15:15.834Z,40.60
2018-04-29T16:17:43.343Z,40.80
2018-04-29T16:20:10.847Z,41.00
2018-04-29T16:22:38.435Z,41.20
2018-04-29T16:25:06.731Z,41.90
2018-04-29T16:27:34.238Z,41.90
2018-04-29T16:30:01.763Z,42.40
2018-04-29T16:32:29.326Z,41.70
2018-04-29T16:34:56.950Z,41.70
2018-04-29T16:37:25.300Z,42.00
2018-04-29T16:39:52.808Z,42.00
2018-04-29T16:42:20.362Z,42.20
2018-04-29T16:44:48.668Z,42.40
2018-04-29T16:47:16.185Z,42.30
2018-04-29T16:49:43.854Z,42.50
2018-04-29T16:52:11.381Z,42.60
2018-04-29T16:54:39.033Z,42.50
2018-04-29T16:57:06.623Z,42.50
2018-04-29T16:59:34.153Z,42.60
2018-04-29T17:02:01.675Z,42.90
2018-04-29T17:04:29.201Z,42.50
2018-04-29T17:06:56.724Z,42.10
2018-04-29T17:09:24.389Z,42.30
2018-04-29T17:11:51.845Z,42.30
2018-04-29T17:14:19.360Z,42.50
2018-04-29T17:16:47.711Z,43.20
2018-04-29T17:19:15.283Z,43.10
2018-04-29T17:21:43.573Z,43.10
2018-04-29T17:24:11.906Z,42.80
2018-04-29T17:26:39.537Z,42.80
2018-04-29T17:29:07.118Z,42.80
2018-04-29T17:31:34.598Z,43.30
2018-04-29T17:34:02.150Z,43.30
2018-04-29T17:36:29.792Z,43.50
2018-04-29T17:38:57.372Z,43.80
2018-04-29T17:41:24.911Z,44.10
2018-04-29T17:43:52.566Z,44.30
2018-04-29T17:46:20.074Z,44.90
2018-04-29T17:48:47.686Z,45.20
2018-04-29T17:51:15.256Z,45.50
2018-04-29T17:53:43.186Z,45.60
2018-04-29T17:56:11.508Z,46.10
2018-04-29T17:58:39.042Z,46.00
2018-04-29T18:01:06.557Z,46.40
2018-04-29T18:03:34.076Z,46.70
2018-04-29T18:06:01.591Z,46.90
2018-04-29T18:08:29.119Z,47.20
2018-04-29T18:10:56.664Z,47.30
2018-04-29T18:13:24.187Z,47.60
2018-04-29T18:15:52.522Z,47.90
2018-04-29T18:18:20.055Z,47.90
2018-04-29T18:20:47.584Z,48.00
2018-04-29T18:23:15.113Z,48.10
2018-04-29T18:25:42.658Z,48.30
2018-04-29T18:28:10.258Z,48.40
2018-04-29T18:30:38.619Z,48.80
2018-04-29T18:33:06.171Z,48.70
2018-04-29T18:35:33.780Z,49.00
2018-04-29T18:38:01.300Z,49.30
2018-04-29T18:40:28.856Z,49.30
2018-04-29T18:42:56.435Z,49.50
2018-04-29T18:45:24.756Z,49.60
2018-04-29T18:47:52.301Z,49.60
2018-04-29T18:50:19.807Z,49.60
2018-04-29T18:52:47.342Z,49.90
2018-04-29T18:55:14.872Z,49.80
2018-04-29T18:57:42.412Z,49.80
2018-04-29T19:00:10.724Z,50.50
2018-04-29T19:02:38.281Z,50.50
2018-04-29T19:05:05.812Z,50.50
2018-04-29T19:07:34.156Z,50.70
2018-04-29T19:10:01.705Z,50.60
2018-04-29T19:12:29.224Z,51.00
2018-04-29T19:14:56.751Z,51.40
2018-04-29T19:17:24.290Z,51.30
2018-04-29T19:19:51.805Z,51.40
2018-04-29T19:22:20.696Z,51.40
2018-04-29T19:24:50.324Z,51.30
2018-04-29T19:27:17.924Z,52.00
2018-04-29T19:29:45.491Z,51.90
2018-04-29T19:32:14.513Z,52.50
2018-04-29T19:34:42.035Z,52.40
2018-04-29T19:37:09.613Z,52.80
2018-04-29T19:39:37.138Z,53.20
2018-04-29T19:42:04.656Z,53.50
2018-04-29T19:44:32.183Z,53.40
2018-04-29T19:46:59.709Z,53.80
2018-04-29T19:49:27.236Z,54.10
2018-04-29T19:51:54.844Z,54.20
2018-04-29T19:54:22.439Z,54.30
2018-04-29T19:56:50.094Z,54.30
2018-04-29T19:59:17.600Z,54.50
2018-04-29T20:01:45.117Z,54.50
2018-04-29T20:04:13.419Z,55.50
2018-04-29T20:06:40.958Z,54.80
2018-04-29T20:09:08.557Z,54.90
2018-04-29T20:11:36.213Z,54.90
2018-04-29T20:14:04.461Z,55.10
2018-04-29T20:16:32.757Z,55.30
2018-04-29T20:19:00.278Z,55.30
2018-04-29T20:21:27.845Z,55.40
2018-04-29T20:23:55.558Z,55.60
2018-04-29T20:26:22.991Z,55.70
2018-04-29T20:28:51.272Z,56.00
2018-04-29T20:31:18.791Z,56.00
2018-04-29T20:33:46.307Z,56.00
2018-04-29T20:36:14.803Z,56.20
2018-04-29T20:38:42.326Z,56.40
2018-04-29T20:41:10.600Z,56.60
2018-04-29T20:43:38.873Z,56.80
2018-04-29T20:46:07.166Z,56.80
2018-04-29T20:48:34.681Z,56.80
2018-04-29T20:51:02.203Z,57.00
2018-04-29T20:53:29.729Z,57.10
2018-04-29T20:55:58.026Z,57.50
2018-04-29T20:58:26.382Z,57.40
2018-04-29T21:00:53.903Z,57.30
2018-04-29T21:03:21.416Z,57.40
2018-04-29T21:05:48.945Z,57.40
2018-04-29T21:08:16.494Z,57.60
2018-04-29T21:10:44.013Z,57.70
2018-04-29T21:13:11.518Z,58.00
2018-04-29T21:15:39.028Z,58.30
2018-04-29T21:18:06.544Z,58.60
2018-04-29T21:20:34.045Z,58.90
2018-04-29T21:23:01.586Z,59.10
2018-04-29T21:25:29.100Z,59.30
2018-04-29T21:27:56.633Z,59.50
2018-04-29T21:30:24.153Z,59.60
2018-04-29T21:32:52.464Z,60.20
2018-04-29T21:35:19.978Z,60.20
2018-04-29T21:37:47.534Z,60.40
2018-04-29T21:40:15.091Z,60.60
2018-04-29T21:42:42.604Z,60.70
2018-04-29T21:45:10.125Z,60.70
2018-04-29T21:47:38.514Z,61.00
2018-04-29T21:50:06.996Z,61.50
2018-04-29T21:52:35.304Z,61.90
2018-04-29T21:55:02.796Z,61.90
2018-04-29T21:57:30.324Z,62.20
2018-04-29T21:59:57.852Z,62.50
2018-04-29T22:02:26.130Z,62.80
2018-04-29T22:04:54.431Z,63.50
2018-04-29T22:07:21.946Z,63.40
2018-04-29T22:09:49.465Z,63.60
2018-04-29T22:12:16.980Z,63.80
2018-04-29T22:14:45.261Z,65.10
2018-04-29T22:17:13.568Z,65.80
2018-04-29T22:19:41.092Z,65.80
2018-04-29T22:22:08.650Z,66.10
2018-04-29T22:24:36.943Z,66.60
2018-04-29T22:27:05.242Z,66.10
2018-04-29T22:29:32.866Z,66.10
2018-04-29T22:32:00.397Z,65.80
2018-04-29T22:34:27.929Z,65.30
2018-04-29T22:36:55.530Z,65.10
2018-04-29T22:39:23.062Z,65.50
2018-04-29T22:41:50.568Z,65.90
2018-04-29T22:44:18.882Z,66.00
2018-04-29T22:46:46.431Z,66.00
2018-04-29T22:49:13.953Z,65.90
2018-04-29T22:51:41.470Z,66.00
2018-04-29T22:54:09.008Z,66.10
2018-04-29T22:56:36.569Z,66.10
2018-04-29T22:59:04.096Z,66.40
2018-04-29T23:01:31.612Z,67.20
2018-04-29T23:03:59.168Z,67.70
2018-04-29T23:06:26.667Z,68.20
2018-04-29T23:08:54.190Z,68.90
2018-04-29T23:11:21.755Z,69.40
2018-04-29T23:13:49.286Z,69.60
2018-04-29T23:16:16.794Z,69.80
2018-04-29T23:18:44.313Z,70.20
2018-04-29T23:21:11.841Z,70.50
2018-04-29T23:23:40.214Z,70.80
2018-04-29T23:26:07.722Z,70.80
2018-04-29T23:28:35.236Z,71.20
2018-04-29T23:31:02.738Z,71.40
2018-04-29T23:33:30.294Z,71.70
2018-04-29T23:35:57.820Z,72.30
2018-04-29T23:38:25.336Z,72.80
2018-04-29T23:40:52.841Z,73.30
2018-04-29T23:43:21.134Z,73.80
2018-04-29T23:45:48.637Z,73.80
2018-04-29T23:48:16.169Z,74.10
2018-04-29T23:50:43.686Z,74.20
2018-04-29T23:53:11.985Z,74.90
2018-04-29T23:55:40.267Z,74.70
2018-04-29T23:58:07.789Z,74.90
